createdAt,value
2017-10-25T00:00:26.084Z,81.70
2017-10-25T00:02:54.114Z,82.20
2017-10-25T00:05:23.238Z,82.70
2017-10-25T00:07:52.357Z,82.20
2017-10-25T00:10:20.737Z,82.20
2017-10-25T00:12:49.855Z,81.80
2017-10-25T00:15:18.205Z,81.80
2017-10-25T00:17:47.320Z,82.10
2017-10-25T00:20:15.676Z,81.30
2017-10-25T00:22:44.033Z,81.10
2017-10-25T00:25:13.164Z,80.90
2017-10-25T00:27:41.520Z,81.10
2017-10-25T00:30:11.186Z,81.60
2017-10-25T00:32:39.535Z,81.60
2017-10-25T00:35:08.653Z,81.60
2017-10-25T00:37:37.884Z,82.00
2017-10-25T00:40:06.243Z,82.00
2017-10-25T00:42:35.364Z,82.30
2017-10-25T00:45:04.529Z,82.30
2017-10-25T00:47:32.880Z,82.30
2017-10-25T00:50:01.241Z,82.30
2017-10-25T00:52:30.032Z,82.10
2017-10-25T00:54:58.040Z,82.00
2017-10-25T00:57:26.464Z,81.90
2017-10-25T00:59:54.140Z,81.90
2017-10-25T01:02:22.501Z,83.30
2017-10-25T01:04:50.862Z,83.10
2017-10-25T01:07:18.893Z,82.50
2017-10-25T01:09:47.252Z,82.60
2017-10-25T01:12:16.375Z,83.40
2017-10-25T01:14:44.388Z,83.20
2017-10-25T01:17:12.760Z,82.90
2017-10-25T01:19:40.788Z,83.40
2017-10-25T01:22:08.449Z,83.60
2017-10-25T01:24:37.133Z,83.60
2017-10-25T01:27:04.901Z,83.60
2017-10-25T01:29:32.913Z,83.10
2017-10-25T01:32:00.930Z,83.10
2017-10-25T01:34:28.616Z,83.20
2017-10-25T01:36:57.397Z,82.90
2017-10-25T01:39:25.066Z,82.90
2017-10-25T01:41:54.239Z,83.70
2017-10-25T01:44:21.904Z,83.50
2017-10-25T01:46:49.569Z,83.10
2017-10-25T01:49:17.240Z,83.30
2017-10-25T01:51:45.252Z,82.80
2017-10-25T01:54:12.915Z,82.40
2017-10-25T01:56:40.948Z,82.20
2017-10-25T01:59:08.874Z,81.90
2017-10-25T02:01:37.321Z,81.60
2017-10-25T02:04:04.985Z,82.80
2017-10-25T02:06:33.349Z,83.40
2017-10-25T02:09:01.369Z,83.60
2017-10-25T02:11:29.721Z,83.30
2017-10-25T02:13:58.069Z,83.60
2017-10-25T02:16:26.521Z,83.90
2017-10-25T02:18:54.886Z,83.90
2017-10-25T02:21:22.544Z,84.50
2017-10-25T02:23:50.913Z,84.90
2017-10-25T02:26:19.342Z,84.50
2017-10-25T02:28:47.697Z,84.40
2017-10-25T02:31:16.845Z,84.20
2017-10-25T02:33:45.461Z,84.20
2017-10-25T02:36:13.818Z,84.10
2017-10-25T02:38:42.941Z,84.40
2017-10-25T02:41:11.293Z,83.90
2017-10-25T02:43:39.651Z,84.40
2017-10-25T02:46:08.029Z,84.10
2017-10-25T02:48:36.389Z,84.00
2017-10-25T02:51:04.751Z,84.00
2017-10-25T02:53:33.377Z,84.20
2017-10-25T02:56:01.733Z,83.40
2017-10-25T02:58:30.083Z,84.70
2017-10-25T03:00:59.478Z,83.40
2017-10-25T03:03:27.824Z,83.40
2017-10-25T03:05:56.189Z,83.70
2017-10-25T03:08:24.552Z,84.50
2017-10-25T03:10:52.216Z,84.30
2017-10-25T03:13:20.591Z,85.30
2017-10-25T03:15:49.020Z,84.10
2017-10-25T03:18:17.034Z,84.10
2017-10-25T03:20:45.069Z,84.10
2017-10-25T03:23:13.433Z,84.20
2017-10-25T03:25:41.789Z,84.30
2017-10-25T03:28:10.174Z,84.60
2017-10-25T03:30:38.530Z,84.80
2017-10-25T03:33:06.885Z,84.50
2017-10-25T03:35:35.078Z,84.10
2017-10-25T03:38:03.248Z,84.80
2017-10-25T03:40:31.601Z,85.00
2017-10-25T03:42:59.960Z,85.50
2017-10-25T03:45:29.081Z,85.20
2017-10-25T03:47:58.200Z,85.50
2017-10-25T03:50:26.573Z,85.50
2017-10-25T03:52:55.190Z,84.40
2017-10-25T03:55:23.546Z,84.60
2017-10-25T03:57:51.926Z,83.20
2017-10-25T04:00:20.286Z,84.00
2017-10-25T04:02:48.640Z,83.30
2017-10-25T04:05:17.781Z,82.60
2017-10-25T04:07:46.138Z,82.60
2017-10-25T04:10:14.500Z,81.60
2017-10-25T04:12:42.880Z,83.30
2017-10-25T04:15:11.234Z,82.00
2017-10-25T04:17:39.857Z,81.40
2017-10-25T04:20:08.233Z,81.30
2017-10-25T04:22:36.590Z,81.60
2017-10-25T04:25:05.718Z,81.80
2017-10-25T04:27:34.357Z,81.80
2017-10-25T04:30:02.719Z,81.50
2017-10-25T04:32:31.073Z,81.70
2017-10-25T04:35:00.214Z,81.30
2017-10-25T04:37:28.824Z,81.30
2017-10-25T04:39:57.168Z,81.20
2017-10-25T04:42:26.313Z,81.30
2017-10-25T04:44:54.668Z,81.30
2017-10-25T04:47:23.033Z,82.40
2017-10-25T04:49:51.417Z,82.20
2017-10-25T04:52:19.770Z,82.30
2017-10-25T04:54:48.895Z,82.00
2017-10-25T04:57:17.509Z,82.20
2017-10-25T04:59:45.867Z,81.70
2017-10-25T05:02:14.317Z,82.70
2017-10-25T05:04:42.928Z,82.50
2017-10-25T05:07:12.054Z,83.10
2017-10-25T05:09:40.845Z,83.30
2017-10-25T05:12:09.964Z,83.20
2017-10-25T05:14:39.085Z,83.00
2017-10-25T05:17:07.460Z,83.00
2017-10-25T05:19:36.595Z,83.70
2017-10-25T05:22:05.209Z,83.70
2017-10-25T05:24:34.624Z,83.30
2017-10-25T05:27:02.629Z,83.20
2017-10-25T05:29:30.637Z,83.10
2017-10-25T05:31:59.777Z,82.70
2017-10-25T05:34:28.140Z,82.60
2017-10-25T05:36:56.497Z,82.40
2017-10-25T05:39:24.676Z,82.70
2017-10-25T05:41:53.042Z,82.50
2017-10-25T05:44:21.397Z,82.20
2017-10-25T05:46:50.551Z,82.20
2017-10-25T05:49:18.559Z,82.20
2017-10-25T05:51:46.920Z,81.70
2017-10-25T05:54:15.301Z,82.00
2017-10-25T05:56:43.912Z,81.80
2017-10-25T05:59:12.272Z,82.00
2017-10-25T06:01:41.433Z,82.80
2017-10-25T06:04:09.810Z,82.80
2017-10-25T06:06:38.166Z,83.10
2017-10-25T06:09:07.312Z,83.60
2017-10-25T06:11:35.486Z,83.50
2017-10-25T06:14:03.913Z,83.40
2017-10-25T06:16:33.052Z,83.70
2017-10-25T06:19:01.224Z,82.90
2017-10-25T06:21:29.392Z,82.60
2017-10-25T06:23:58.605Z,81.70
2017-10-25T06:26:26.956Z,81.70
2017-10-25T06:28:55.312Z,81.30
2017-10-25T06:31:23.712Z,81.60
2017-10-25T06:33:52.837Z,83.10
2017-10-25T06:36:21.189Z,83.10
2017-10-25T06:38:49.556Z,82.50
2017-10-25T06:41:17.913Z,81.50
2017-10-25T06:43:46.266Z,81.50
2017-10-25T06:46:14.297Z,81.10
2017-10-25T06:48:42.313Z,82.40
2017-10-25T06:51:10.325Z,81.30
2017-10-25T06:53:38.697Z,82.10
2017-10-25T06:56:06.699Z,82.40
2017-10-25T06:58:35.064Z,81.40
2017-10-25T07:01:03.433Z,81.40
2017-10-25T07:03:31.788Z,82.30
2017-10-25T07:06:00.909Z,82.60
2017-10-25T07:08:29.289Z,82.60
2017-10-25T07:10:58.409Z,83.60
2017-10-25T07:13:26.901Z,83.70
2017-10-25T07:15:56.032Z,82.40
2017-10-25T07:18:24.390Z,82.40
2017-10-25T07:20:53.516Z,82.90
2017-10-25T07:23:21.905Z,82.20
2017-10-25T07:25:50.260Z,81.70
2017-10-25T07:28:18.616Z,83.00
2017-10-25T07:30:46.986Z,84.30
2017-10-25T07:36:08.584Z,81.60
2017-10-25T07:38:36.942Z,84.20
2017-10-25T07:41:05.109Z,83.10
2017-10-25T07:43:33.479Z,84.80
2017-10-25T07:46:01.833Z,84.70
2017-10-25T07:48:30.968Z,84.70
2017-10-25T07:50:59.351Z,84.70
2017-10-25T07:53:27.711Z,82.90
2017-10-25T07:55:56.700Z,83.60
2017-10-25T07:58:25.079Z,85.00
2017-10-25T08:00:53.440Z,85.00
2017-10-25T08:03:21.798Z,83.60
2017-10-25T08:05:50.929Z,84.00
2017-10-25T08:08:19.290Z,83.80
2017-10-25T08:10:47.647Z,83.70
2017-10-25T08:13:16.777Z,82.60
2017-10-25T08:15:45.146Z,82.60
2017-10-25T08:18:13.497Z,84.30
2017-10-25T08:20:42.645Z,84.20
2017-10-25T08:23:11.004Z,84.10
2017-10-25T08:25:39.358Z,82.70
2017-10-25T08:28:07.724Z,82.50
2017-10-25T08:30:36.843Z,83.00
2017-10-25T08:33:05.201Z,83.10
2017-10-25T08:35:34.399Z,83.40
2017-10-25T08:38:03.518Z,83.50
2017-10-25T08:40:32.193Z,83.50
2017-10-25T08:43:00.849Z,83.60
2017-10-25T08:45:29.279Z,84.20
2017-10-25T08:47:57.457Z,83.10
2017-10-25T08:50:25.839Z,82.90
2017-10-25T08:52:54.195Z,83.00
2017-10-25T08:55:22.202Z,83.10
2017-10-25T08:57:50.569Z,83.50
2017-10-25T09:00:18.239Z,83.30
2017-10-25T09:02:45.898Z,83.70
2017-10-25T09:05:14.269Z,82.60
2017-10-25T09:07:43.103Z,82.90
2017-10-25T09:10:11.463Z,81.90
2017-10-25T09:12:40.261Z,83.60
2017-10-25T09:15:09.383Z,83.00
2017-10-25T09:17:37.740Z,83.00
2017-10-25T09:20:06.881Z,83.10
2017-10-25T09:22:35.244Z,83.00
2017-10-25T09:25:03.853Z,81.80
2017-10-25T09:27:32.495Z,80.30
2017-10-25T09:30:00.855Z,79.20
2017-10-25T09:32:29.480Z,79.00
2017-10-25T09:34:57.864Z,78.10
2017-10-25T09:37:26.218Z,77.80
2017-10-25T09:39:54.584Z,77.70
2017-10-25T10:08:19.646Z,77.60
2017-10-25T10:13:42.714Z,78.30
2017-10-25T10:18:44.340Z,78.80
2017-10-25T10:31:57.483Z,79.70
2017-10-25T10:34:25.845Z,79.60
2017-10-25T10:36:54.204Z,79.00
2017-10-25T10:39:22.599Z,78.90
2017-10-25T10:41:50.957Z,79.70
2017-10-25T10:44:20.079Z,77.80
2017-10-25T10:46:48.455Z,77.70
2017-10-25T10:49:16.809Z,80.10
2017-10-25T10:51:45.424Z,78.50
2017-10-25T10:54:13.805Z,76.70
2017-10-25T10:56:43.182Z,78.90
2017-10-25T10:59:10.853Z,78.10
2017-10-25T11:01:38.960Z,78.20
2017-10-25T11:04:06.971Z,79.70
2017-10-25T11:06:35.347Z,78.30
2017-10-25T11:09:03.888Z,76.40
2017-10-25T11:11:32.241Z,76.40
2017-10-25T11:14:00.603Z,76.80
2017-10-25T11:16:28.985Z,76.10
2017-10-25T11:18:57.331Z,77.40
2017-10-25T11:21:26.451Z,75.90
2017-10-25T11:23:54.839Z,75.90
2017-10-25T11:26:23.193Z,75.80
2017-10-25T11:28:51.557Z,75.10
2017-10-25T11:31:20.347Z,75.70
2017-10-25T11:33:49.480Z,76.60
2017-10-25T11:36:17.651Z,76.40
2017-10-25T11:38:45.855Z,74.50
2017-10-25T11:41:14.264Z,74.40
2017-10-25T11:43:43.391Z,73.60
2017-10-25T11:46:11.767Z,73.60
2017-10-25T11:48:40.122Z,73.10
2017-10-25T11:51:09.243Z,74.70
2017-10-25T11:53:37.618Z,74.80
2017-10-25T11:56:05.629Z,75.30
2017-10-25T11:58:33.989Z,75.20
2017-10-25T12:01:02.396Z,74.90
2017-10-25T12:03:30.755Z,74.40
2017-10-25T12:05:59.112Z,73.40
2017-10-25T12:08:27.499Z,74.00
2017-10-25T12:10:55.864Z,74.40
2017-10-25T12:13:24.207Z,73.10
2017-10-25T12:15:52.576Z,74.50
2017-10-25T12:18:21.703Z,74.30
2017-10-25T12:20:50.066Z,75.00
2017-10-25T12:23:18.463Z,74.30
2017-10-25T12:25:46.816Z,74.30
2017-10-25T12:28:15.167Z,73.80
2017-10-25T12:30:45.846Z,72.30
2017-10-25T12:33:14.191Z,73.00
2017-10-25T12:35:43.318Z,72.60
2017-10-25T12:38:11.705Z,72.60
2017-10-25T12:40:40.109Z,72.30
2017-10-25T12:43:08.478Z,71.80
2017-10-25T12:45:36.868Z,72.10
2017-10-25T12:48:05.233Z,71.90
2017-10-25T12:50:34.619Z,71.40
2017-10-25T12:53:02.993Z,71.30
2017-10-25T12:55:32.380Z,69.70
2017-10-25T12:58:00.736Z,69.70
2017-10-25T13:00:29.878Z,70.50
2017-10-25T13:02:58.237Z,70.40
2017-10-25T13:05:26.615Z,71.10
2017-10-25T13:07:55.223Z,71.00
2017-10-25T13:17:05.814Z,68.60
2017-10-25T13:19:35.586Z,69.20
2017-10-25T13:22:04.719Z,66.80
2017-10-25T13:24:34.096Z,67.00
2017-10-25T13:27:02.474Z,66.90
2017-10-25T13:29:30.838Z,66.30
2017-10-25T13:31:59.196Z,68.80
2017-10-25T13:34:28.358Z,69.20
2017-10-25T13:36:56.729Z,68.40
2017-10-25T13:39:25.085Z,67.60
2017-10-25T13:41:53.475Z,67.90
2017-10-25T13:44:21.835Z,66.00
2017-10-25T13:46:50.190Z,67.20
2017-10-25T13:49:19.421Z,66.80
2017-10-25T13:51:47.787Z,66.80
2017-10-25T13:54:16.393Z,68.20
2017-10-25T13:56:44.779Z,66.90
2017-10-25T13:59:13.139Z,67.40
2017-10-25T14:01:41.490Z,68.00
2017-10-25T14:04:09.867Z,67.20
2017-10-25T14:06:38.224Z,67.70
2017-10-25T14:09:07.351Z,66.40
2017-10-25T14:11:35.536Z,66.30
2017-10-25T14:14:03.888Z,67.20
2017-10-25T14:16:32.239Z,65.30
2017-10-25T14:19:00.707Z,66.10
2017-10-25T14:21:29.063Z,65.70
2017-10-25T14:23:57.419Z,66.40
2017-10-25T14:26:37.137Z,65.00
2017-10-25T14:29:05.495Z,65.90
2017-10-25T14:31:33.856Z,66.30
2017-10-25T14:34:02.271Z,65.40
2017-10-25T14:36:31.395Z,65.40
2017-10-25T14:38:59.747Z,65.30
2017-10-25T14:41:28.151Z,65.40
2017-10-25T14:43:56.503Z,65.20
2017-10-25T14:46:24.672Z,66.30
2017-10-25T14:48:52.865Z,67.10
2017-10-25T14:51:21.228Z,67.00
2017-10-25T14:53:50.358Z,68.50
2017-10-25T14:56:18.724Z,68.50
2017-10-25T14:58:47.083Z,68.20
2017-10-25T15:01:15.700Z,68.50
2017-10-25T15:03:44.068Z,68.20
2017-10-25T15:06:12.419Z,68.60
2017-10-25T15:08:40.774Z,69.20
2017-10-25T15:11:09.219Z,69.40
2017-10-25T15:13:37.582Z,69.50
2017-10-25T15:16:05.936Z,69.80
2017-10-25T15:18:34.323Z,69.60
2017-10-25T15:21:03.088Z,70.10
2017-10-25T15:23:31.453Z,69.60
2017-10-25T15:26:00.617Z,70.70
2017-10-25T15:28:28.982Z,70.50
2017-10-25T15:30:57.343Z,71.10
2017-10-25T15:33:26.628Z,71.30
2017-10-25T15:35:54.986Z,71.40
2017-10-25T15:38:24.310Z,72.20
2017-10-25T15:40:52.708Z,72.20
2017-10-25T15:43:21.067Z,72.30
2017-10-25T15:45:49.432Z,72.60
2017-10-25T15:48:17.798Z,72.80
2017-10-25T15:50:46.923Z,73.30
2017-10-25T15:53:15.313Z,73.30
2017-10-25T15:55:43.676Z,73.50
2017-10-25T15:58:12.026Z,73.90
2017-10-25T16:00:40.407Z,74.40
2017-10-25T16:03:08.757Z,74.90
2017-10-25T16:05:37.126Z,75.30
2017-10-25T16:08:07.268Z,75.30
2017-10-25T16:10:35.887Z,75.90
2017-10-25T16:13:04.241Z,76.30
2017-10-25T16:15:32.638Z,76.60
2017-10-25T16:18:00.998Z,76.50
2017-10-25T16:20:29.355Z,76.80
2017-10-25T16:22:58.504Z,77.20
2017-10-25T16:25:27.111Z,77.20
2017-10-25T16:27:56.779Z,77.50
2017-10-25T16:30:25.153Z,77.40
2017-10-25T16:32:53.518Z,77.80
2017-10-25T16:35:21.879Z,77.60
2017-10-25T16:37:51.028Z,78.40
2017-10-25T16:40:19.386Z,78.30
2017-10-25T16:42:47.745Z,78.80
2017-10-25T16:45:16.118Z,78.90
2017-10-25T16:47:44.583Z,78.50
2017-10-25T16:50:13.720Z,79.30
2017-10-25T16:52:42.081Z,79.40
2017-10-25T16:55:10.482Z,79.90
2017-10-25T16:57:38.858Z,80.10
2017-10-25T17:00:07.222Z,80.30
2017-10-25T17:02:36.564Z,80.30
2017-10-25T17:05:04.592Z,80.70
2017-10-25T17:07:32.951Z,81.00
2017-10-25T17:10:01.312Z,81.00
2017-10-25T17:12:31.452Z,81.30
